sensor_id;sensor_type;location;lat;lon;timestamp;temperature;humidity
10722;DHT22;5412;59.450;18.124;2024-02-21T00:02:20;2.70;99.90
10722;DHT22;5412;59.450;18.124;2024-02-21T00:04:46;2.80;99.90
10722;DHT22;5412;59.450;18.124;2024-02-21T00:07:12;2.60;99.90
10722;DHT22;5412;59.450;18.124;2024-02-21T00:09:37;2.60;99.90
10722;DHT22;5412;59.450;18.124;2024-02-21T00:12:03;2.70;99.90
10722;DHT22;5412;59.450;18.124;2024-02-21T00:14:30;2.50;99.90
10722;DHT22;5412;59.450;18.124;2024-02-21T00:16:56;2.60;99.90
10722;DHT22;5412;59.450;18.124;2024-02-21T00:19:22;2.70;99.90
10722;DHT22;5412;59.450;18.124;2024-02-21T00:21:47;2.80;99.90
10722;DHT22;5412;59.450;18.124;2024-02-21T00:24:13;2.80;99.90
10722;DHT22;5412;59.450;18.124;2024-02-21T00:26:39;2.90;99.90
10722;DHT22;5412;59.450;18.124;2024-02-21T00:29:04;2.80;99.90
10722;DHT22;5412;59.450;18.124;2024-02-21T00:31:31;2.60;99.90
10722;DHT22;5412;59.450;18.124;2024-02-21T00:33:57;2.40;99.90
10722;DHT22;5412;59.450;18.124;2024-02-21T00:36:23;2.40;99.90
10722;DHT22;5412;59.450;18.124;2024-02-21T00:38:49;3.80;99.90
10722;DHT22;5412;59.450;18.124;2024-02-21T00:41:15;2.60;99.90
10722;DHT22;5412;59.450;18.124;2024-02-21T00:43:41;2.60;99.90
10722;DHT22;5412;59.450;18.124;2024-02-21T00:46:07;2.40;99.90
10722;DHT22;5412;59.450;18.124;2024-02-21T00:48:33;2.20;99.90
10722;DHT22;5412;59.450;18.124;2024-02-21T00:50:59;2.10;99.90
10722;DHT22;5412;59.450;18.124;2024-02-21T00:53:25;2.30;99.90
10722;DHT22;5412;59.450;18.124;2024-02-21T00:55:51;2.40;99.90
10722;DHT22;5412;59.450;18.124;2024-02-21T00:58:16;2.40;99.90
10722;DHT22;5412;59.450;18.124;2024-02-21T01:00:42;2.50;99.90
10722;DHT22;5412;59.450;18.124;2024-02-21T01:03:07;2.50;99.90
10722;DHT22;5412;59.450;18.124;2024-02-21T01:05:33;2.60;99.90
10722;DHT22;5412;59.450;18.124;2024-02-21T01:07:59;2.80;99.90
10722;DHT22;5412;59.450;18.124;2024-02-21T01:10:25;2.80;99.90
10722;DHT22;5412;59.450;18.124;2024-02-21T01:12:50;2.90;99.90
10722;DHT22;5412;59.450;18.124;2024-02-21T01:15:16;2.90;99.90
10722;DHT22;5412;59.450;18.124;2024-02-21T01:17:42;2.80;99.90
10722;DHT22;5412;59.450;18.124;2024-02-21T01:20:08;2.90;99.90
10722;DHT22;5412;59.450;18.124;2024-02-21T01:22:33;2.90;99.90
10722;DHT22;5412;59.450;18.124;2024-02-21T01:24:59;2.90;99.90
10722;DHT22;5412;59.450;18.124;2024-02-21T01:27:25;2.90;99.90
10722;DHT22;5412;59.450;18.124;2024-02-21T01:29:50;2.90;99.90
10722;DHT22;5412;59.450;18.124;2024-02-21T01:32:16;2.80;99.90
10722;DHT22;5412;59.450;18.124;2024-02-21T01:34:42;2.90;99.90
10722;DHT22;5412;59.450;18.124;2024-02-21T01:37:08;3.00;99.90
10722;DHT22;5412;59.450;18.124;2024-02-21T01:39:34;3.00;99.90
10722;DHT22;5412;59.450;18.124;2024-02-21T01:42:00;3.00;99.90
10722;DHT22;5412;59.450;18.124;2024-02-21T01:44:26;3.10;99.90
10722;DHT22;5412;59.450;18.124;2024-02-21T01:46:52;3.00;99.90
10722;DHT22;5412;59.450;18.124;2024-02-21T01:49:20;3.00;99.90
10722;DHT22;5412;59.450;18.124;2024-02-21T01:51:46;2.90;99.90
10722;DHT22;5412;59.450;18.124;2024-02-21T01:54:14;3.00;99.90
10722;DHT22;5412;59.450;18.124;2024-02-21T01:56:41;3.00;99.90
10722;DHT22;5412;59.450;18.124;2024-02-21T01:59:08;3.00;99.90
10722;DHT22;5412;59.450;18.124;2024-02-21T02:01:33;3.10;99.90
10722;DHT22;5412;59.450;18.124;2024-02-21T02:03:59;2.90;99.90
10722;DHT22;5412;59.450;18.124;2024-02-21T02:06:25;2.90;99.90
10722;DHT22;5412;59.450;18.124;2024-02-21T02:08:51;2.80;99.90
10722;DHT22;5412;59.450;18.124;2024-02-21T02:11:17;2.80;99.90
10722;DHT22;5412;59.450;18.124;2024-02-21T02:13:42;2.90;99.90
10722;DHT22;5412;59.450;18.124;2024-02-21T02:16:08;2.90;99.90
10722;DHT22;5412;59.450;18.124;2024-02-21T02:18:34;2.90;99.90
10722;DHT22;5412;59.450;18.124;2024-02-21T02:21:00;2.90;99.90
10722;DHT22;5412;59.450;18.124;2024-02-21T02:25:51;2.90;99.90
10722;DHT22;5412;59.450;18.124;2024-02-21T02:28:20;2.90;99.90
10722;DHT22;5412;59.450;18.124;2024-02-21T02:30:46;2.90;99.90
10722;DHT22;5412;59.450;18.124;2024-02-21T02:33:12;2.90;99.90
10722;DHT22;5412;59.450;18.124;2024-02-21T02:35:38;3.00;99.90
10722;DHT22;5412;59.450;18.124;2024-02-21T02:38:04;3.00;99.90
10722;DHT22;5412;59.450;18.124;2024-02-21T02:40:31;3.00;99.90
10722;DHT22;5412;59.450;18.124;2024-02-21T02:42:56;3.00;99.90
10722;DHT22;5412;59.450;18.124;2024-02-21T02:45:23;3.00;99.90
10722;DHT22;5412;59.450;18.124;2024-02-21T02:47:55;2.90;99.90
10722;DHT22;5412;59.450;18.124;2024-02-21T02:50:26;2.90;99.90
10722;DHT22;5412;59.450;18.124;2024-02-21T02:52:52;2.80;99.90
10722;DHT22;5412;59.450;18.124;2024-02-21T02:55:18;2.90;99.90
10722;DHT22;5412;59.450;18.124;2024-02-21T02:57:44;2.90;99.90
10722;DHT22;5412;59.450;18.124;2024-02-21T03:00:11;2.80;99.90
10722;DHT22;5412;59.450;18.124;2024-02-21T03:02:38;2.70;99.90
10722;DHT22;5412;59.450;18.124;2024-02-21T03:05:15;2.80;99.90
10722;DHT22;5412;59.450;18.124;2024-02-21T03:07:41;2.90;99.90
10722;DHT22;5412;59.450;18.124;2024-02-21T03:10:07;3.00;99.90
10722;DHT22;5412;59.450;18.124;2024-02-21T03:12:33;2.90;99.90
10722;DHT22;5412;59.450;18.124;2024-02-21T03:14:59;2.90;99.90
10722;DHT22;5412;59.450;18.124;2024-02-21T03:17:25;3.00;99.90
10722;DHT22;5412;59.450;18.124;2024-02-21T03:19:52;3.00;99.90
10722;DHT22;5412;59.450;18.124;2024-02-21T03:22:18;3.00;99.90
10722;DHT22;5412;59.450;18.124;2024-02-21T03:24:44;3.10;99.90
10722;DHT22;5412;59.450;18.124;2024-02-21T03:27:10;3.00;99.90
10722;DHT22;5412;59.450;18.124;2024-02-21T03:29:35;3.00;99.90
10722;DHT22;5412;59.450;18.124;2024-02-21T03:32:01;3.00;99.90
10722;DHT22;5412;59.450;18.124;2024-02-21T03:34:27;3.00;99.90
10722;DHT22;5412;59.450;18.124;2024-02-21T03:36:53;3.00;99.90
10722;DHT22;5412;59.450;18.124;2024-02-21T03:39:18;3.00;99.90
10722;DHT22;5412;59.450;18.124;2024-02-21T03:41:44;3.10;99.90
10722;DHT22;5412;59.450;18.124;2024-02-21T03:44:10;3.20;99.90
10722;DHT22;5412;59.450;18.124;2024-02-21T03:46:35;3.10;99.90
10722;DHT22;5412;59.450;18.124;2024-02-21T03:49:01;3.10;99.90
10722;DHT22;5412;59.450;18.124;2024-02-21T03:51:27;3.10;99.90
10722;DHT22;5412;59.450;18.124;2024-02-21T03:53:52;3.10;99.90
10722;DHT22;5412;59.450;18.124;2024-02-21T03:56:18;3.00;99.90
10722;DHT22;5412;59.450;18.124;2024-02-21T03:58:44;3.00;99.90
10722;DHT22;5412;59.450;18.124;2024-02-21T04:01:09;3.10;99.90
10722;DHT22;5412;59.450;18.124;2024-02-21T04:03:35;3.20;99.90
10722;DHT22;5412;59.450;18.124;2024-02-21T04:06:01;3.10;99.90
10722;DHT22;5412;59.450;18.124;2024-02-21T04:08:27;3.20;99.90
10722;DHT22;5412;59.450;18.124;2024-02-21T04:10:52;3.20;99.90
10722;DHT22;5412;59.450;18.124;2024-02-21T04:13:18;3.20;99.90
10722;DHT22;5412;59.450;18.124;2024-02-21T04:15:44;3.20;99.90
10722;DHT22;5412;59.450;18.124;2024-02-21T04:18:09;3.30;99.90
10722;DHT22;5412;59.450;18.124;2024-02-21T04:20:35;3.40;99.90
10722;DHT22;5412;59.450;18.124;2024-02-21T04:23:01;3.40;99.90
10722;DHT22;5412;59.450;18.124;2024-02-21T04:25:27;3.40;99.90
10722;DHT22;5412;59.450;18.124;2024-02-21T04:27:52;3.40;99.90
10722;DHT22;5412;59.450;18.124;2024-02-21T04:30:18;3.50;99.90
10722;DHT22;5412;59.450;18.124;2024-02-21T04:32:44;3.40;99.90
10722;DHT22;5412;59.450;18.124;2024-02-21T04:35:10;3.40;99.90
10722;DHT22;5412;59.450;18.124;2024-02-21T04:37:35;3.50;99.90
10722;DHT22;5412;59.450;18.124;2024-02-21T04:40:01;5.10;99.90
10722;DHT22;5412;59.450;18.124;2024-02-21T04:42:27;3.40;99.90
10722;DHT22;5412;59.450;18.124;2024-02-21T04:44:52;3.50;99.90
10722;DHT22;5412;59.450;18.124;2024-02-21T04:47:19;3.40;99.90
10722;DHT22;5412;59.450;18.124;2024-02-21T04:49:49;3.40;99.90
10722;DHT22;5412;59.450;18.124;2024-02-21T04:52:14;3.40;99.90
10722;DHT22;5412;59.450;18.124;2024-02-21T04:54:40;3.50;99.90
10722;DHT22;5412;59.450;18.124;2024-02-21T04:57:06;3.50;99.90
10722;DHT22;5412;59.450;18.124;2024-02-21T04:59:32;3.50;99.90
10722;DHT22;5412;59.450;18.124;2024-02-21T05:01:57;3.50;99.90
10722;DHT22;5412;59.450;18.124;2024-02-21T05:04:24;3.50;99.90
10722;DHT22;5412;59.450;18.124;2024-02-21T05:06:50;3.50;99.90
10722;DHT22;5412;59.450;18.124;2024-02-21T05:09:15;3.60;99.90
10722;DHT22;5412;59.450;18.124;2024-02-21T05:11:41;3.60;99.90
10722;DHT22;5412;59.450;18.124;2024-02-21T05:14:07;3.60;99.90
10722;DHT22;5412;59.450;18.124;2024-02-21T05:16:32;3.70;99.90
10722;DHT22;5412;59.450;18.124;2024-02-21T05:18:58;3.80;99.90
10722;DHT22;5412;59.450;18.124;2024-02-21T05:21:24;3.80;99.90
10722;DHT22;5412;59.450;18.124;2024-02-21T05:23:51;3.90;99.90
10722;DHT22;5412;59.450;18.124;2024-02-21T05:26:24;3.90;99.90
10722;DHT22;5412;59.450;18.124;2024-02-21T05:28:50;3.80;99.90
10722;DHT22;5412;59.450;18.124;2024-02-21T05:31:17;3.80;99.90
10722;DHT22;5412;59.450;18.124;2024-02-21T05:33:44;3.70;99.90
10722;DHT22;5412;59.450;18.124;2024-02-21T05:36:10;3.70;99.90
10722;DHT22;5412;59.450;18.124;2024-02-21T05:38:35;3.80;99.90
10722;DHT22;5412;59.450;18.124;2024-02-21T05:41:01;3.80;99.90
10722;DHT22;5412;59.450;18.124;2024-02-21T05:43:27;3.80;99.90
10722;DHT22;5412;59.450;18.124;2024-02-21T05:45:53;3.80;99.90
10722;DHT22;5412;59.450;18.124;2024-02-21T05:48:18;3.90;99.90
10722;DHT22;5412;59.450;18.124;2024-02-21T05:50:44;4.00;99.90
10722;DHT22;5412;59.450;18.124;2024-02-21T05:53:10;4.00;99.90
10722;DHT22;5412;59.450;18.124;2024-02-21T05:55:36;4.00;99.90
10722;DHT22;5412;59.450;18.124;2024-02-21T05:58:02;4.00;99.90
10722;DHT22;5412;59.450;18.124;2024-02-21T06:00:28;4.10;99.90
10722;DHT22;5412;59.450;18.124;2024-02-21T06:02:54;4.10;99.90
10722;DHT22;5412;59.450;18.124;2024-02-21T06:05:19;4.10;99.90
10722;DHT22;5412;59.450;18.124;2024-02-21T06:07:45;4.10;99.90
10722;DHT22;5412;59.450;18.124;2024-02-21T06:10:11;4.10;99.90
10722;DHT22;5412;59.450;18.124;2024-02-21T06:12:36;4.10;99.90
10722;DHT22;5412;59.450;18.124;2024-02-21T06:15:02;4.20;99.90
10722;DHT22;5412;59.450;18.124;2024-02-21T06:17:28;4.20;99.90
10722;DHT22;5412;59.450;18.124;2024-02-21T06:19:54;4.20;99.90
10722;DHT22;5412;59.450;18.124;2024-02-21T06:22:20;4.20;99.90
10722;DHT22;5412;59.450;18.124;2024-02-21T06:24:46;4.20;99.90
10722;DHT22;5412;59.450;18.124;2024-02-21T06:27:12;4.20;99.90
10722;DHT22;5412;59.450;18.124;2024-02-21T06:29:40;4.20;99.90
10722;DHT22;5412;59.450;18.124;2024-02-21T06:32:05;4.30;99.90
10722;DHT22;5412;59.450;18.124;2024-02-21T06:34:32;4.20;99.90
10722;DHT22;5412;59.450;18.124;2024-02-21T06:36:57;4.30;99.90
10722;DHT22;5412;59.450;18.124;2024-02-21T06:39:23;4.30;99.90
10722;DHT22;5412;59.450;18.124;2024-02-21T06:41:49;4.20;99.90
10722;DHT22;5412;59.450;18.124;2024-02-21T06:44:17;4.30;99.90
10722;DHT22;5412;59.450;18.124;2024-02-21T06:46:43;4.30;99.90
10722;DHT22;5412;59.450;18.124;2024-02-21T06:49:08;4.40;99.90
10722;DHT22;5412;59.450;18.124;2024-02-21T06:51:34;4.40;99.90
10722;DHT22;5412;59.450;18.124;2024-02-21T06:54:00;5.20;99.90
10722;DHT22;5412;59.450;18.124;2024-02-21T06:56:26;5.60;99.90
10722;DHT22;5412;59.450;18.124;2024-02-21T06:58:54;5.70;99.90
10722;DHT22;5412;59.450;18.124;2024-02-21T07:01:20;5.80;99.90
10722;DHT22;5412;59.450;18.124;2024-02-21T07:03:46;5.80;99.90
10722;DHT22;5412;59.450;18.124;2024-02-21T07:06:12;5.80;99.90
10722;DHT22;5412;59.450;18.124;2024-02-21T07:08:38;5.80;99.90
10722;DHT22;5412;59.450;18.124;2024-02-21T07:11:04;5.60;99.90
10722;DHT22;5412;59.450;18.124;2024-02-21T07:13:30;5.40;99.90
10722;DHT22;5412;59.450;18.124;2024-02-21T07:15:56;5.30;99.90
10722;DHT22;5412;59.450;18.124;2024-02-21T07:18:21;5.20;99.90
10722;DHT22;5412;59.450;18.124;2024-02-21T07:20:47;5.10;99.90
10722;DHT22;5412;59.450;18.124;2024-02-21T07:23:13;5.10;99.90
10722;DHT22;5412;59.450;18.124;2024-02-21T07:25:39;5.10;99.90
10722;DHT22;5412;59.450;18.124;2024-02-21T07:28:05;5.10;99.90
10722;DHT22;5412;59.450;18.124;2024-02-21T07:30:31;5.10;99.90
10722;DHT22;5412;59.450;18.124;2024-02-21T07:32:57;5.10;99.90
10722;DHT22;5412;59.450;18.124;2024-02-21T07:35:23;5.00;99.90
10722;DHT22;5412;59.450;18.124;2024-02-21T07:37:49;5.00;99.90
10722;DHT22;5412;59.450;18.124;2024-02-21T07:40:16;5.00;99.90
10722;DHT22;5412;59.450;18.124;2024-02-21T07:42:43;5.10;99.90
10722;DHT22;5412;59.450;18.124;2024-02-21T07:45:09;4.90;99.90
10722;DHT22;5412;59.450;18.124;2024-02-21T07:47:36;4.90;99.90
10722;DHT22;5412;59.450;18.124;2024-02-21T07:50:05;5.00;99.90
10722;DHT22;5412;59.450;18.124;2024-02-21T07:52:31;4.90;99.90
10722;DHT22;5412;59.450;18.124;2024-02-21T07:54:57;4.90;99.90
10722;DHT22;5412;59.450;18.124;2024-02-21T07:57:22;4.80;99.90
10722;DHT22;5412;59.450;18.124;2024-02-21T07:59:48;4.90;99.90
10722;DHT22;5412;59.450;18.124;2024-02-21T08:02:14;4.70;99.90
10722;DHT22;5412;59.450;18.124;2024-02-21T08:04:40;4.80;99.90
10722;DHT22;5412;59.450;18.124;2024-02-21T08:07:06;4.70;99.90
10722;DHT22;5412;59.450;18.124;2024-02-21T08:09:32;4.70;99.90
10722;DHT22;5412;59.450;18.124;2024-02-21T08:11:58;4.80;99.90
10722;DHT22;5412;59.450;18.124;2024-02-21T08:14:23;4.80;99.90
10722;DHT22;5412;59.450;18.124;2024-02-21T08:16:51;4.80;99.90
10722;DHT22;5412;59.450;18.124;2024-02-21T08:19:19;4.90;99.90
10722;DHT22;5412;59.450;18.124;2024-02-21T08:21:44;4.90;99.90
10722;DHT22;5412;59.450;18.124;2024-02-21T08:24:13;4.80;99.90
10722;DHT22;5412;59.450;18.124;2024-02-21T08:26:42;4.80;99.90
10722;DHT22;5412;59.450;18.124;2024-02-21T08:29:07;4.90;99.90
10722;DHT22;5412;59.450;18.124;2024-02-21T08:31:33;5.00;99.90
10722;DHT22;5412;59.450;18.124;2024-02-21T08:34:00;4.90;99.90
10722;DHT22;5412;59.450;18.124;2024-02-21T08:36:33;4.90;99.90
10722;DHT22;5412;59.450;18.124;2024-02-21T08:38:59;5.00;99.90
10722;DHT22;5412;59.450;18.124;2024-02-21T08:41:25;5.00;99.90
10722;DHT22;5412;59.450;18.124;2024-02-21T08:43:52;5.10;99.90
10722;DHT22;5412;59.450;18.124;2024-02-21T08:46:19;5.20;99.90
10722;DHT22;5412;59.450;18.124;2024-02-21T08:48:46;5.20;99.90
10722;DHT22;5412;59.450;18.124;2024-02-21T08:51:12;5.20;99.90
10722;DHT22;5412;59.450;18.124;2024-02-21T08:53:38;5.20;99.90
10722;DHT22;5412;59.450;18.124;2024-02-21T08:56:04;5.20;99.90
10722;DHT22;5412;59.450;18.124;2024-02-21T08:58:30;5.20;99.90
10722;DHT22;5412;59.450;18.124;2024-02-21T09:00:56;5.20;99.90
10722;DHT22;5412;59.450;18.124;2024-02-21T09:03:22;5.20;99.90
10722;DHT22;5412;59.450;18.124;2024-02-21T09:05:48;5.30;99.90
10722;DHT22;5412;59.450;18.124;2024-02-21T09:08:14;6.70;99.90
10722;DHT22;5412;59.450;18.124;2024-02-21T09:10:40;5.30;99.90
10722;DHT22;5412;59.450;18.124;2024-02-21T09:13:06;5.30;99.90
10722;DHT22;5412;59.450;18.124;2024-02-21T09:15:33;5.40;99.90
10722;DHT22;5412;59.450;18.124;2024-02-21T09:17:59;5.50;99.90
10722;DHT22;5412;59.450;18.124;2024-02-21T09:20:25;5.50;99.90
10722;DHT22;5412;59.450;18.124;2024-02-21T09:22:51;5.60;99.90
10722;DHT22;5412;59.450;18.124;2024-02-21T09:25:18;5.60;99.90
10722;DHT22;5412;59.450;18.124;2024-02-21T09:27:44;5.70;99.90
10722;DHT22;5412;59.450;18.124;2024-02-21T09:30:10;5.70;99.90
10722;DHT22;5412;59.450;18.124;2024-02-21T09:32:37;5.70;99.90
10722;DHT22;5412;59.450;18.124;2024-02-21T09:35:03;5.80;99.90
10722;DHT22;5412;59.450;18.124;2024-02-21T09:37:31;5.90;99.90
10722;DHT22;5412;59.450;18.124;2024-02-21T09:39:57;5.90;99.90
10722;DHT22;5412;59.450;18.124;2024-02-21T09:42:36;6.00;99.90
10722;DHT22;5412;59.450;18.124;2024-02-21T09:45:04;6.00;99.90
10722;DHT22;5412;59.450;18.124;2024-02-21T09:50:36;6.10;99.90
10722;DHT22;5412;59.450;18.124;2024-02-21T09:53:04;6.00;99.90
10722;DHT22;5412;59.450;18.124;2024-02-21T09:55:33;6.10;99.90
10722;DHT22;5412;59.450;18.124;2024-02-21T09:58:01;6.10;99.90
10722;DHT22;5412;59.450;18.124;2024-02-21T10:00:27;6.10;99.90
10722;DHT22;5412;59.450;18.124;2024-02-21T10:02:53;6.20;99.90
10722;DHT22;5412;59.450;18.124;2024-02-21T10:05:19;6.20;99.90
10722;DHT22;5412;59.450;18.124;2024-02-21T10:07:45;6.00;99.90
10722;DHT22;5412;59.450;18.124;2024-02-21T10:10:11;6.10;99.90
10722;DHT22;5412;59.450;18.124;2024-02-21T10:12:47;6.10;99.90
10722;DHT22;5412;59.450;18.124;2024-02-21T10:15:12;6.10;99.90
10722;DHT22;5412;59.450;18.124;2024-02-21T10:17:38;6.10;99.90
10722;DHT22;5412;59.450;18.124;2024-02-21T10:20:08;6.10;99.90
10722;DHT22;5412;59.450;18.124;2024-02-21T10:22:34;6.20;99.90
10722;DHT22;5412;59.450;18.124;2024-02-21T10:25:08;6.20;99.90
10722;DHT22;5412;59.450;18.124;2024-02-21T10:27:34;6.10;99.90
10722;DHT22;5412;59.450;18.124;2024-02-21T10:30:00;6.10;99.90
10722;DHT22;5412;59.450;18.124;2024-02-21T10:32:26;6.10;99.90
10722;DHT22;5412;59.450;18.124;2024-02-21T10:35:04;6.10;99.90
10722;DHT22;5412;59.450;18.124;2024-02-21T10:37:34;6.10;99.90
10722;DHT22;5412;59.450;18.124;2024-02-21T10:40:00;6.10;99.90
10722;DHT22;5412;59.450;18.124;2024-02-21T10:42:29;6.20;99.90
10722;DHT22;5412;59.450;18.124;2024-02-21T10:45:01;6.20;99.90
10722;DHT22;5412;59.450;18.124;2024-02-21T10:47:31;6.20;99.90
10722;DHT22;5412;59.450;18.124;2024-02-21T10:50:02;6.20;99.90
10722;DHT22;5412;59.450;18.124;2024-02-21T10:52:36;6.30;99.90
10722;DHT22;5412;59.450;18.124;2024-02-21T10:55:04;6.20;99.90
10722;DHT22;5412;59.450;18.124;2024-02-21T10:57:35;6.30;99.90
10722;DHT22;5412;59.450;18.124;2024-02-21T11:00:02;6.30;99.90
10722;DHT22;5412;59.450;18.124;2024-02-21T11:02:29;6.20;99.90
10722;DHT22;5412;59.450;18.124;2024-02-21T11:04:57;6.30;99.90
10722;DHT22;5412;59.450;18.124;2024-02-21T11:07:24;6.30;99.90
10722;DHT22;5412;59.450;18.124;2024-02-21T11:09:53;6.30;99.90
10722;DHT22;5412;59.450;18.124;2024-02-21T11:12:22;6.20;99.90
10722;DHT22;5412;59.450;18.124;2024-02-21T11:14:48;6.20;99.90
10722;DHT22;5412;59.450;18.124;2024-02-21T11:17:20;6.20;99.90
10722;DHT22;5412;59.450;18.124;2024-02-21T11:19:52;6.20;99.90
10722;DHT22;5412;59.450;18.124;2024-02-21T11:22:19;6.20;99.90
10722;DHT22;5412;59.450;18.124;2024-02-21T11:24:48;6.20;99.90
10722;DHT22;5412;59.450;18.124;2024-02-21T11:27:20;6.20;99.90
10722;DHT22;5412;59.450;18.124;2024-02-21T11:29:56;6.20;99.90
10722;DHT22;5412;59.450;18.124;2024-02-21T11:32:22;6.20;99.90
10722;DHT22;5412;59.450;18.124;2024-02-21T11:37:28;6.20;99.90
10722;DHT22;5412;59.450;18.124;2024-02-21T11:39:57;6.20;99.90
10722;DHT22;5412;59.450;18.124;2024-02-21T11:42:24;6.20;99.90
10722;DHT22;5412;59.450;18.124;2024-02-21T11:44:50;6.20;99.90
10722;DHT22;5412;59.450;18.124;2024-02-21T11:47:15;6.30;99.90
10722;DHT22;5412;59.450;18.124;2024-02-21T11:49:46;6.30;99.90
10722;DHT22;5412;59.450;18.124;2024-02-21T11:52:14;6.90;99.90
10722;DHT22;5412;59.450;18.124;2024-02-21T11:54:44;7.60;99.90
10722;DHT22;5412;59.450;18.124;2024-02-21T11:57:10;7.70;99.90
10722;DHT22;5412;59.450;18.124;2024-02-21T11:59:36;7.60;99.90
10722;DHT22;5412;59.450;18.124;2024-02-21T12:02:02;7.30;99.90
10722;DHT22;5412;59.450;18.124;2024-02-21T12:04:29;7.10;99.90
10722;DHT22;5412;59.450;18.124;2024-02-21T12:06:57;7.00;99.90
10722;DHT22;5412;59.450;18.124;2024-02-21T12:09:24;6.90;99.90
10722;DHT22;5412;59.450;18.124;2024-02-21T12:12:00;6.80;99.90
10722;DHT22;5412;59.450;18.124;2024-02-21T12:14:27;6.80;99.90
10722;DHT22;5412;59.450;18.124;2024-02-21T12:16:54;6.80;99.90
10722;DHT22;5412;59.450;18.124;2024-02-21T12:19:20;6.90;99.90
10722;DHT22;5412;59.450;18.124;2024-02-21T12:21:48;6.80;99.90
10722;DHT22;5412;59.450;18.124;2024-02-21T12:24:23;6.80;99.90
10722;DHT22;5412;59.450;18.124;2024-02-21T12:26:50;6.80;99.90
10722;DHT22;5412;59.450;18.124;2024-02-21T12:29:16;6.80;99.90
10722;DHT22;5412;59.450;18.124;2024-02-21T12:31:41;6.70;99.90
10722;DHT22;5412;59.450;18.124;2024-02-21T12:34:07;6.70;99.90
10722;DHT22;5412;59.450;18.124;2024-02-21T12:36:40;6.70;99.90
10722;DHT22;5412;59.450;18.124;2024-02-21T12:39:07;6.70;99.90
10722;DHT22;5412;59.450;18.124;2024-02-21T12:41:34;6.70;99.90
10722;DHT22;5412;59.450;18.124;2024-02-21T12:44:01;6.70;99.90
10722;DHT22;5412;59.450;18.124;2024-02-21T12:46:26;6.70;99.90
10722;DHT22;5412;59.450;18.124;2024-02-21T12:48:52;6.70;99.90
10722;DHT22;5412;59.450;18.124;2024-02-21T12:51:18;6.70;99.90
10722;DHT22;5412;59.450;18.124;2024-02-21T12:53:47;6.60;99.90
10722;DHT22;5412;59.450;18.124;2024-02-21T12:56:15;6.70;99.90
10722;DHT22;5412;59.450;18.124;2024-02-21T12:58:41;6.70;99.90
10722;DHT22;5412;59.450;18.124;2024-02-21T13:01:06;6.70;99.90
10722;DHT22;5412;59.450;18.124;2024-02-21T13:03:32;6.70;99.90
10722;DHT22;5412;59.450;18.124;2024-02-21T13:05:58;6.60;99.90
10722;DHT22;5412;59.450;18.124;2024-02-21T13:08:24;6.60;99.90
10722;DHT22;5412;59.450;18.124;2024-02-21T13:10:50;6.60;99.90
10722;DHT22;5412;59.450;18.124;2024-02-21T13:13:16;6.60;99.90
10722;DHT22;5412;59.450;18.124;2024-02-21T13:15:42;6.60;99.90
10722;DHT22;5412;59.450;18.124;2024-02-21T13:18:10;6.60;99.90
10722;DHT22;5412;59.450;18.124;2024-02-21T13:20:36;6.60;99.90
10722;DHT22;5412;59.450;18.124;2024-02-21T13:23:02;6.70;99.90
10722;DHT22;5412;59.450;18.124;2024-02-21T13:25:28;6.70;99.90
10722;DHT22;5412;59.450;18.124;2024-02-21T13:27:54;6.60;99.90
10722;DHT22;5412;59.450;18.124;2024-02-21T13:30:21;6.60;99.90
10722;DHT22;5412;59.450;18.124;2024-02-21T13:32:47;6.60;99.90
10722;DHT22;5412;59.450;18.124;2024-02-21T13:35:14;6.60;99.90
10722;DHT22;5412;59.450;18.124;2024-02-21T13:37:41;6.70;99.90
10722;DHT22;5412;59.450;18.124;2024-02-21T13:40:07;6.70;99.90
10722;DHT22;5412;59.450;18.124;2024-02-21T13:42:40;6.70;99.90
10722;DHT22;5412;59.450;18.124;2024-02-21T13:45:06;6.70;99.90
10722;DHT22;5412;59.450;18.124;2024-02-21T13:47:33;6.70;99.90
10722;DHT22;5412;59.450;18.124;2024-02-21T13:49:59;6.70;99.90
10722;DHT22;5412;59.450;18.124;2024-02-21T13:52:25;6.80;99.90
10722;DHT22;5412;59.450;18.124;2024-02-21T13:54:53;6.70;99.90
10722;DHT22;5412;59.450;18.124;2024-02-21T13:57:19;6.70;99.90
10722;DHT22;5412;59.450;18.124;2024-02-21T13:59:44;6.70;99.90
10722;DHT22;5412;59.450;18.124;2024-02-21T14:02:10;6.70;99.90
10722;DHT22;5412;59.450;18.124;2024-02-21T14:04:36;6.70;99.90
10722;DHT22;5412;59.450;18.124;2024-02-21T14:07:01;6.70;99.90
10722;DHT22;5412;59.450;18.124;2024-02-21T14:09:28;6.70;99.90
10722;DHT22;5412;59.450;18.124;2024-02-21T14:11:55;6.70;99.90
10722;DHT22;5412;59.450;18.124;2024-02-21T14:14:21;6.70;99.90
10722;DHT22;5412;59.450;18.124;2024-02-21T14:16:47;8.30;99.90
10722;DHT22;5412;59.450;18.124;2024-02-21T14:19:14;6.70;99.90
10722;DHT22;5412;59.450;18.124;2024-02-21T14:21:39;6.70;99.90
10722;DHT22;5412;59.450;18.124;2024-02-21T14:24:06;6.70;99.90
10722;DHT22;5412;59.450;18.124;2024-02-21T14:26:32;6.70;99.90
10722;DHT22;5412;59.450;18.124;2024-02-21T14:28:59;6.70;99.90
10722;DHT22;5412;59.450;18.124;2024-02-21T14:31:25;6.60;99.90
10722;DHT22;5412;59.450;18.124;2024-02-21T14:33:51;6.60;99.90
10722;DHT22;5412;59.450;18.124;2024-02-21T14:36:17;6.60;99.90
10722;DHT22;5412;59.450;18.124;2024-02-21T14:38:44;6.60;99.90
10722;DHT22;5412;59.450;18.124;2024-02-21T14:41:12;6.50;99.90
10722;DHT22;5412;59.450;18.124;2024-02-21T14:43:38;7.60;99.90
10722;DHT22;5412;59.450;18.124;2024-02-21T14:46:04;6.50;99.90
10722;DHT22;5412;59.450;18.124;2024-02-21T14:48:31;6.50;99.90
10722;DHT22;5412;59.450;18.124;2024-02-21T14:50:58;6.40;99.90
10722;DHT22;5412;59.450;18.124;2024-02-21T14:53:24;6.50;99.90
10722;DHT22;5412;59.450;18.124;2024-02-21T14:55:50;8.00;99.90
10722;DHT22;5412;59.450;18.124;2024-02-21T14:58:16;6.50;99.90
10722;DHT22;5412;59.450;18.124;2024-02-21T15:00:44;6.50;99.90
10722;DHT22;5412;59.450;18.124;2024-02-21T15:03:09;6.50;99.90
10722;DHT22;5412;59.450;18.124;2024-02-21T15:05:42;6.50;99.90
10722;DHT22;5412;59.450;18.124;2024-02-21T15:08:07;6.60;99.90
10722;DHT22;5412;59.450;18.124;2024-02-21T15:10:35;6.60;99.90
10722;DHT22;5412;59.450;18.124;2024-02-21T15:13:01;6.60;99.90
10722;DHT22;5412;59.450;18.124;2024-02-21T15:15:28;6.50;99.90
10722;DHT22;5412;59.450;18.124;2024-02-21T15:17:54;6.50;99.90
10722;DHT22;5412;59.450;18.124;2024-02-21T15:20:20;6.50;99.90
10722;DHT22;5412;59.450;18.124;2024-02-21T15:22:45;6.60;99.90
10722;DHT22;5412;59.450;18.124;2024-02-21T15:25:11;6.50;99.90
10722;DHT22;5412;59.450;18.124;2024-02-21T15:27:42;6.60;99.90
10722;DHT22;5412;59.450;18.124;2024-02-21T15:30:09;6.60;99.90
10722;DHT22;5412;59.450;18.124;2024-02-21T15:32:35;6.60;99.90
10722;DHT22;5412;59.450;18.124;2024-02-21T15:35:03;6.50;99.90
10722;DHT22;5412;59.450;18.124;2024-02-21T15:37:29;6.50;99.90
10722;DHT22;5412;59.450;18.124;2024-02-21T15:39:55;7.60;99.90
10722;DHT22;5412;59.450;18.124;2024-02-21T15:42:20;6.40;99.90
10722;DHT22;5412;59.450;18.124;2024-02-21T15:44:46;6.50;99.90
10722;DHT22;5412;59.450;18.124;2024-02-21T15:47:12;6.50;99.90
10722;DHT22;5412;59.450;18.124;2024-02-21T15:49:38;6.50;99.90